Time;durP1;ratioP1;P1;durP2;ratioP2;P2;SDS_P1;SDS_P2;PMS_P1;PMS_P2;Temp;Humidity;BMP_temperature;BMP_pressure;BME280_temperature;BME280_humidity;BME280_pressure;Samples;Min_cycle;Max_cycle;Signal;HPM_P1;HPM_P2
2023/05/31 00:01:45;;;;;;;3.05;1.42;;;12.50;99.90;;;;;;5043416;28;20399;-72
2023/05/31 00:04:11;;;;;;;2.40;1.17;;;12.50;99.90;;;;;;5025250;28;20049;-73
2023/05/31 00:06:36;;;;;;;4.65;1.58;;;12.50;99.90;;;;;;5026045;28;20076;-72
2023/05/31 00:09:03;;;;;;;4.00;1.98;;;12.50;99.90;;;;;;5042889;28;20040;-72
2023/05/31 00:11:28;;;;;;;3.40;1.35;;;12.50;99.90;;;;;;5042583;28;20037;-72
2023/05/31 00:13:54;;;;;;;3.08;0.90;;;12.50;99.90;;;;;;5024149;28;20399;-72
2023/05/31 00:16:20;;;;;;;3.15;1.00;;;12.50;99.90;;;;;;5025298;28;20056;-73
2023/05/31 00:18:46;;;;;;;1.75;1.25;;;12.50;99.90;;;;;;5042972;28;20052;-72
2023/05/31 00:21:11;;;;;;;5.43;1.35;;;12.50;99.90;;;;;;5043087;28;20443;-72
2023/05/31 00:23:37;;;;;;;0.85;0.75;;;12.50;99.90;;;;;;5042886;28;20041;-72
2023/05/31 00:26:03;;;;;;;7.75;1.80;;;12.50;99.90;;;;;;5024647;28;20198;-72
2023/05/31 00:28:28;;;;;;;1.88;1.10;;;12.40;99.90;;;;;;5042161;28;20044;-72
2023/05/31 00:30:54;;;;;;;1.40;0.93;;;12.40;99.90;;;;;;5024906;28;20119;-72
2023/05/31 00:33:19;;;;;;;2.92;1.02;;;12.40;99.90;;;;;;5043480;28;20060;-72
2023/05/31 00:35:45;;;;;;;3.58;1.65;;;12.40;99.90;;;;;;5042269;28;20614;-72
2023/05/31 00:38:11;;;;;;;3.80;1.10;;;12.30;99.90;;;;;;5043327;28;21145;-72
2023/05/31 00:40:36;;;;;;;2.13;1.23;;;12.30;99.90;;;;;;5025287;28;20190;-72
2023/05/31 00:43:02;;;;;;;2.63;1.63;;;12.30;99.90;;;;;;5042090;28;20535;-72
2023/05/31 00:45:28;;;;;;;3.55;1.50;;;12.20;99.90;;;;;;5042672;28;20033;-72
2023/05/31 00:47:55;;;;;;;7.85;1.92;;;12.20;99.90;;;;;;5024509;28;20585;-72
2023/05/31 00:50:21;;;;;;;1.42;1.25;;;12.20;99.90;;;;;;5043053;28;20056;-72
2023/05/31 00:52:49;;;;;;;4.13;1.27;;;12.20;99.90;;;;;;5042120;28;20048;-72
2023/05/31 00:55:15;;;;;;;1.65;1.10;;;12.10;99.90;;;;;;5042987;28;20049;-72
2023/05/31 00:57:41;;;;;;;2.60;1.20;;;12.00;99.90;;;;;;5041551;28;20072;-72
2023/05/31 01:00:08;;;;;;;1.08;0.80;;;12.00;99.90;;;;;;5042937;28;20480;-73
2023/05/31 01:02:37;;;;;;;2.47;0.85;;;12.00;99.90;;;;;;5103746;22;20053;-72
2023/05/31 01:05:05;;;;;;;3.65;1.30;;;12.00;99.90;;;;;;5004673;28;20056;-72
2023/05/31 01:07:30;;;;;;;3.85;1.75;;;11.90;99.90;;;;;;5022891;28;20499;-73
2023/05/31 01:09:56;;;;;;;2.70;1.02;;;11.90;99.90;;;;;;5022764;28;20123;-73
2023/05/31 01:13:01;;;;;;;2.53;1.35;;;11.80;99.90;;;;;;5021599;28;20487;-72
2023/05/31 01:15:33;;;;;;;1.85;0.88;;;11.80;99.90;;;;;;5005586;28;20053;-72
2023/05/31 01:18:18;;;;;;;4.05;1.33;;;11.80;99.90;;;;;;5022483;28;20116;-73
2023/05/31 01:20:46;;;;;;;2.80;1.52;;;11.80;99.90;;;;;;5005298;28;20084;-72
2023/05/31 01:23:53;;;;;;;3.38;1.52;;;11.70;99.90;;;;;;5022822;28;20064;-73
2023/05/31 01:26:22;;;;;;;6.03;1.65;;;11.70;99.90;;;;;;5005451;28;20061;-73
2023/05/31 01:28:54;;;;;;;4.53;1.63;;;11.70;99.90;;;;;;5021776;28;20053;-72
2023/05/31 01:31:21;;;;;;;1.92;1.48;;;11.70;99.90;;;;;;5005458;28;20049;-72
2023/05/31 01:33:49;;;;;;;3.35;1.42;;;11.70;99.90;;;;;;5022338;28;20800;-72
2023/05/31 01:36:15;;;;;;;3.30;1.25;;;11.60;99.90;;;;;;5025948;28;20045;-73
2023/05/31 01:38:40;;;;;;;3.28;1.38;;;11.60;99.90;;;;;;5025753;28;20042;-72
2023/05/31 01:41:07;;;;;;;2.78;1.70;;;11.70;99.90;;;;;;5026723;28;20046;-72
2023/05/31 01:43:34;;;;;;;1.83;1.30;;;11.60;99.90;;;;;;5024965;28;20520;-72
2023/05/31 01:46:01;;;;;;;4.03;1.40;;;11.60;99.90;;;;;;5017979;28;20669;-73
2023/05/31 01:48:27;;;;;;;2.08;1.17;;;11.60;99.90;;;;;;4998372;28;20046;-72
2023/05/31 01:50:55;;;;;;;3.95;1.30;;;11.60;99.90;;;;;;5025584;28;20121;-72
2023/05/31 01:53:21;;;;;;;6.55;1.45;;;11.60;99.90;;;;;;5025915;28;20053;-72
2023/05/31 01:55:47;;;;;;;2.30;1.35;;;11.70;99.90;;;;;;5025832;28;20053;-72
2023/05/31 01:58:15;;;;;;;3.50;1.48;;;11.60;99.90;;;;;;5024998;28;20041;-73
2023/05/31 02:00:41;;;;;;;4.88;1.85;;;11.60;99.90;;;;;;5026041;28;20052;-73
2023/05/31 02:03:06;;;;;;;4.57;2.08;;;11.60;99.90;;;;;;5025748;28;20045;-72
2023/05/31 02:05:32;;;;;;;3.50;1.98;;;11.60;99.90;;;;;;5026214;28;20418;-72
2023/05/31 02:07:57;;;;;;;8.05;2.10;;;11.60;99.90;;;;;;5007644;28;20033;-72
2023/05/31 02:10:23;;;;;;;4.65;2.08;;;11.60;99.90;;;;;;5025850;28;20057;-73
2023/05/31 02:12:50;;;;;;;5.53;1.65;;;11.60;99.90;;;;;;5006407;28;20128;-72
2023/05/31 02:15:19;;;;;;;3.83;1.70;;;11.60;99.90;;;;;;5025438;28;20104;-73
2023/05/31 02:17:46;;;;;;;4.57;1.92;;;11.60;99.90;;;;;;5025207;28;20496;-73
2023/05/31 02:20:15;;;;;;;3.47;2.17;;;11.60;99.90;;;;;;5007997;28;20095;-72
2023/05/31 02:22:45;;;;;;;5.35;1.95;;;11.60;99.90;;;;;;5006943;28;20049;-73
2023/05/31 02:25:15;;;;;;;3.28;1.70;;;11.50;99.90;;;;;;5025830;28;20045;-73
2023/05/31 02:27:41;;;;;;;4.47;2.22;;;11.50;99.90;;;;;;5024490;28;20052;-72
2023/05/31 02:30:08;;;;;;;5.78;1.50;;;11.50;99.90;;;;;;5025291;28;20042;-72
2023/05/31 02:32:35;;;;;;;4.78;2.03;;;11.50;99.90;;;;;;5041101;28;20060;-72
2023/05/31 02:35:05;;;;;;;3.45;2.00;;;11.50;99.90;;;;;;5025208;28;20061;-72
2023/05/31 02:37:32;;;;;;;6.10;2.38;;;11.50;99.90;;;;;;5024406;28;20041;-72
2023/05/31 02:39:57;;;;;;;6.60;2.15;;;11.40;99.90;;;;;;5007699;28;20084;-72
2023/05/31 02:42:23;;;;;;;5.63;1.80;;;11.40;99.90;;;;;;5024475;28;20468;-72
2023/05/31 02:44:49;;;;;;;3.65;1.90;;;11.40;99.90;;;;;;5006903;28;20124;-73
2023/05/31 02:47:15;;;;;;;3.92;2.03;;;11.40;99.90;;;;;;5024298;28;20112;-72
2023/05/31 02:49:40;;;;;;;5.50;2.47;;;11.40;99.90;;;;;;5006919;28;20037;-73
2023/05/31 02:52:06;;;;;;;3.80;2.17;;;11.40;99.90;;;;;;5025345;28;20049;-72
2023/05/31 02:54:32;;;;;;;7.78;3.60;;;11.40;99.90;;;;;;5024958;28;20121;-72
2023/05/31 02:56:59;;;;;;;3.70;2.42;;;11.30;99.90;;;;;;5006437;28;20053;-72
2023/05/31 02:59:25;;;;;;;6.30;2.33;;;11.30;99.90;;;;;;5024563;28;20560;-72
2023/05/31 03:01:51;;;;;;;6.82;2.65;;;11.30;99.90;;;;;;5006529;28;20187;-72
2023/05/31 03:04:16;;;;;;;4.80;2.38;;;11.30;99.90;;;;;;5024771;28;20124;-72
2023/05/31 03:06:42;;;;;;;4.95;2.42;;;11.30;99.90;;;;;;5007141;28;20100;-73
2023/05/31 03:09:08;;;;;;;4.75;2.15;;;11.30;99.90;;;;;;5024711;28;20064;-72
2023/05/31 03:11:34;;;;;;;9.88;2.38;;;11.20;99.90;;;;;;5024815;28;20611;-73
2023/05/31 03:13:59;;;;;;;3.95;1.80;;;11.20;99.90;;;;;;5023278;28;20049;-72
2023/05/31 03:16:25;;;;;;;5.80;2.33;;;11.20;99.90;;;;;;5024556;28;20404;-73
2023/05/31 03:18:51;;;;;;;3.58;2.03;;;11.20;99.90;;;;;;5023739;28;20049;-72
2023/05/31 03:21:17;;;;;;;3.55;1.98;;;11.20;99.90;;;;;;5024231;28;20987;-72
2023/05/31 03:23:42;;;;;;;2.45;1.58;;;11.20;99.90;;;;;;5006818;28;20056;-72
2023/05/31 03:26:08;;;;;;;3.53;1.90;;;11.20;99.90;;;;;;5024630;28;20033;-72
2023/05/31 03:28:33;;;;;;;7.55;2.42;;;11.20;99.90;;;;;;5005906;28;20073;-71
2023/05/31 03:30:59;;;;;;;2.50;2.00;;;11.20;99.90;;;;;;5006211;28;20049;-72
2023/05/31 03:33:25;;;;;;;8.07;2.40;;;11.20;99.90;;;;;;5024059;28;20037;-72
2023/05/31 03:35:50;;;;;;;4.50;1.80;;;11.20;99.90;;;;;;5005897;28;20099;-72
2023/05/31 03:38:16;;;;;;;6.25;2.70;;;11.20;99.90;;;;;;5024591;28;20037;-72
2023/05/31 03:40:42;;;;;;;4.07;2.10;;;11.20;99.90;;;;;;5023739;28;20470;-72
2023/05/31 03:43:07;;;;;;;6.57;2.28;;;11.20;99.90;;;;;;5023394;28;20037;-72
2023/05/31 03:45:33;;;;;;;6.53;2.67;;;11.30;99.90;;;;;;5023606;28;20482;-72
2023/05/31 03:47:58;;;;;;;6.35;2.38;;;11.20;99.90;;;;;;5006104;28;20639;-72
2023/05/31 03:50:24;;;;;;;4.13;1.98;;;11.20;99.90;;;;;;5023812;28;20131;-72
2023/05/31 03:52:49;;;;;;;6.88;2.80;;;11.20;99.90;;;;;;5023129;28;20044;-72
2023/05/31 03:55:15;;;;;;;5.28;2.13;;;11.30;99.90;;;;;;5023873;28;20049;-72
2023/05/31 03:57:41;;;;;;;5.25;2.13;;;11.30;99.90;;;;;;5022341;28;20068;-73
2023/05/31 04:00:07;;;;;;;3.03;1.48;;;11.20;99.90;;;;;;5005851;28;20050;-72
2023/05/31 04:02:32;;;;;;;7.10;2.38;;;11.30;99.90;;;;;;5023432;28;20482;-72
2023/05/31 04:04:58;;;;;;;6.00;2.15;;;11.20;99.90;;;;;;5005507;28;20189;-71
2023/05/31 04:07:23;;;;;;;5.45;2.88;;;11.30;99.90;;;;;;5023318;28;20633;-73
2023/05/31 04:09:49;;;;;;;4.50;2.33;;;11.20;99.90;;;;;;5023760;28;20064;-72
2023/05/31 04:12:15;;;;;;;4.45;2.08;;;11.30;99.90;;;;;;5022494;28;20067;-72
2023/05/31 04:14:40;;;;;;;4.10;2.00;;;11.30;99.90;;;;;;5023299;28;20045;-72
2023/05/31 04:17:06;;;;;;;6.78;1.85;;;11.30;99.90;;;;;;5023017;28;20121;-72
2023/05/31 04:19:31;;;;;;;5.72;2.83;;;11.30;99.90;;;;;;5023497;28;20046;-73
2023/05/31 04:21:57;;;;;;;4.82;2.63;;;11.30;99.90;;;;;;5023088;28;20060;-72
2023/05/31 04:24:22;;;;;;;8.95;2.58;;;11.30;99.90;;;;;;4989360;28;20041;-72
2023/05/31 04:26:48;;;;;;;3.58;2.58;;;11.40;99.90;;;;;;5022323;28;20678;-72
2023/05/31 04:29:14;;;;;;;3.30;1.85;;;11.40;99.90;;;;;;5023353;28;20045;-72
2023/05/31 04:31:40;;;;;;;6.72;2.58;;;11.40;99.90;;;;;;4989040;28;20415;-74
2023/05/31 04:34:06;;;;;;;3.85;2.30;;;11.40;99.90;;;;;;5023356;28;20049;-72
2023/05/31 04:36:35;;;;;;;4.82;2.15;;;11.50;99.90;;;;;;5023045;28;20524;-72
2023/05/31 04:39:03;;;;;;;4.82;2.30;;;11.50;99.90;;;;;;5023019;28;20049;-71
2023/05/31 04:41:29;;;;;;;3.65;2.15;;;11.50;99.90;;;;;;5022816;28;20048;-72
2023/05/31 04:43:56;;;;;;;5.72;1.70;;;11.50;99.90;;;;;;5004510;28;20041;-72
2023/05/31 04:46:22;;;;;;;4.40;2.20;;;11.50;99.90;;;;;;5022835;28;20522;-72
2023/05/31 04:48:49;;;;;;;5.57;3.22;;;11.60;99.90;;;;;;5022548;28;20053;-72
2023/05/31 04:51:18;;;;;;;5.50;2.38;;;11.60;99.90;;;;;;5023271;28;20087;-72
2023/05/31 04:53:47;;;;;;;4.60;2.33;;;11.60;99.90;;;;;;5022093;28;20049;-72
2023/05/31 04:56:13;;;;;;;7.45;2.35;;;11.70;99.90;;;;;;5021807;28;20769;-72
2023/05/31 04:58:39;;;;;;;6.53;2.47;;;11.70;99.90;;;;;;5021575;28;20833;-72
2023/05/31 05:01:06;;;;;;;5.78;2.85;;;11.70;99.90;;;;;;5019323;28;20041;-71
2023/05/31 05:03:32;;;;;;;4.50;2.28;;;11.70;99.90;;;;;;5012864;28;20633;-72
2023/05/31 05:06:11;;;;;;;4.78;2.10;;;11.80;99.90;;;;;;5011741;28;20060;-72
2023/05/31 05:08:36;;;;;;;3.38;2.50;;;11.80;99.90;;;;;;5017013;28;20092;-71
2023/05/31 05:11:02;;;;;;;5.75;2.85;;;11.80;99.90;;;;;;5022628;28;20111;-73
2023/05/31 05:13:28;;;;;;;8.52;1.98;;;11.90;99.90;;;;;;5011231;28;20045;-71
2023/05/31 05:15:53;;;;;;;6.10;2.08;;;11.90;99.90;;;;;;4982560;28;20538;-72
2023/05/31 05:18:19;;;;;;;7.03;3.00;;;12.00;99.90;;;;;;4990698;28;20115;-72
2023/05/31 05:20:45;;;;;;;7.00;2.42;;;12.00;99.90;;;;;;4980162;28;20042;-73
2023/05/31 05:23:10;;;;;;;5.93;2.78;;;12.00;99.90;;;;;;4990520;28;20064;-73
2023/05/31 05:25:36;;;;;;;6.05;2.17;;;12.00;99.90;;;;;;4985459;28;20043;-72
2023/05/31 05:28:02;;;;;;;6.38;2.30;;;12.10;99.90;;;;;;4980130;28;20136;-72
2023/05/31 05:30:28;;;;;;;3.67;1.75;;;12.10;99.90;;;;;;4969735;28;20050;-72
2023/05/31 05:32:53;;;;;;;7.63;2.17;;;12.20;99.90;;;;;;4986415;28;20141;-72
2023/05/31 05:35:19;;;;;;;6.88;3.28;;;12.10;99.90;;;;;;4984301;28;20125;-72
2023/05/31 05:37:44;;;;;;;5.32;2.45;;;12.20;99.90;;;;;;4986739;28;20053;-73
2023/05/31 05:40:11;;;;;;;6.82;2.25;;;12.20;99.90;;;;;;5005435;28;20373;-73
2023/05/31 05:42:37;;;;;;;14.40;2.88;;;12.30;99.90;;;;;;5001932;28;20046;-74
2023/05/31 05:45:05;;;;;;;6.45;2.47;;;12.30;99.90;;;;;;4986930;28;20049;-73
2023/05/31 05:47:30;;;;;;;7.13;2.20;;;12.30;99.90;;;;;;5005085;28;20049;-73
2023/05/31 05:49:56;;;;;;;8.27;3.10;;;12.30;99.90;;;;;;5003381;28;20277;-73
2023/05/31 05:52:22;;;;;;;8.30;2.90;;;12.40;99.90;;;;;;4987179;28;20041;-73
2023/05/31 05:54:47;;;;;;;10.75;2.83;;;12.40;99.90;;;;;;4983229;28;20042;-74
2023/05/31 05:57:13;;;;;;;11.77;3.10;;;12.50;99.90;;;;;;4997496;28;20084;-75
2023/05/31 05:59:40;;;;;;;10.20;3.05;;;12.50;99.90;;;;;;5005063;28;20085;-74
2023/05/31 06:02:06;;;;;;;5.43;2.15;;;12.50;99.90;;;;;;4986961;28;20058;-74
2023/05/31 06:04:32;;;;;;;7.60;2.58;;;12.60;99.90;;;;;;5005209;28;20396;-74
2023/05/31 06:06:57;;;;;;;6.03;3.00;;;12.60;99.90;;;;;;5004065;28;20042;-73
2023/05/31 06:09:23;;;;;;;7.85;3.08;;;12.60;99.90;;;;;;5003721;28;20041;-75
2023/05/31 06:11:49;;;;;;;9.10;3.63;;;12.70;99.90;;;;;;4984618;28;20048;-74
2023/05/31 06:14:14;;;;;;;8.40;4.10;;;12.70;99.90;;;;;;4986486;28;20673;-74
2023/05/31 06:16:40;;;;;;;4.80;2.67;;;12.80;99.90;;;;;;5004972;28;20408;-74
2023/05/31 06:19:05;;;;;;;6.70;2.95;;;12.80;99.90;;;;;;5006065;28;20049;-73
2023/05/31 06:21:31;;;;;;;5.20;2.80;;;12.80;99.90;;;;;;5000219;28;20045;-72
2023/05/31 06:23:57;;;;;;;7.13;2.65;;;12.90;99.90;;;;;;4986399;28;20116;-72
2023/05/31 06:26:23;;;;;;;8.15;3.38;;;13.00;99.90;;;;;;5002144;28;20038;-75
2023/05/31 06:28:48;;;;;;;5.43;2.60;;;13.00;99.90;;;;;;5002486;28;20049;-75
2023/05/31 06:31:14;;;;;;;8.05;3.50;;;13.10;99.90;;;;;;5004230;28;20507;-75
2023/05/31 06:33:40;;;;;;;6.25;2.88;;;13.10;99.90;;;;;;5003454;28;20041;-75
2023/05/31 06:36:05;;;;;;;6.15;2.60;;;13.10;99.90;;;;;;5004624;28;20053;-74
2023/05/31 06:38:31;;;;;;;6.47;2.22;;;13.20;99.90;;;;;;5004607;28;20365;-74
2023/05/31 06:40:57;;;;;;;4.85;2.88;;;13.20;99.90;;;;;;5003089;28;20145;-74
2023/05/31 06:43:22;;;;;;;7.30;3.25;;;13.20;99.90;;;;;;4985449;28;20134;-74
2023/05/31 06:45:49;;;;;;;9.68;2.80;;;13.30;99.90;;;;;;5003677;28;20487;-74
2023/05/31 06:48:15;;;;;;;5.35;2.00;;;13.30;99.90;;;;;;5004066;28;20050;-74
2023/05/31 06:50:41;;;;;;;4.65;2.78;;;13.30;99.90;;;;;;4985366;28;20042;-74
2023/05/31 06:53:09;;;;;;;6.55;2.40;;;13.30;99.90;;;;;;5003904;28;20085;-74
2023/05/31 06:55:35;;;;;;;13.50;3.22;;;13.40;99.90;;;;;;4986017;28;20048;-74
2023/05/31 06:58:01;;;;;;;4.03;2.20;;;13.50;99.90;;;;;;5002305;28;20484;-74
2023/05/31 07:00:27;;;;;;;4.82;2.40;;;13.50;99.90;;;;;;4984877;28;20385;-74
2023/05/31 07:02:52;;;;;;;7.03;2.70;;;13.50;99.90;;;;;;4985626;28;20103;-76
2023/05/31 07:05:18;;;;;;;6.15;2.78;;;13.60;99.90;;;;;;4969357;28;20050;-76
2023/05/31 07:07:44;;;;;;;9.48;1.90;;;13.60;99.90;;;;;;5003143;28;20042;-76
2023/05/31 07:10:11;;;;;;;6.38;2.72;;;13.70;99.90;;;;;;5002664;28;20049;-76
2023/05/31 07:12:36;;;;;;;10.48;2.50;;;13.70;99.90;;;;;;5002737;28;20519;-76
2023/05/31 07:15:02;;;;;;;8.35;2.15;;;13.80;99.90;;;;;;5001818;28;20618;-75
2023/05/31 07:17:29;;;;;;;7.57;2.90;;;13.80;99.90;;;;;;5002950;28;20054;-76
2023/05/31 07:19:54;;;;;;;7.47;2.08;;;13.80;99.90;;;;;;5003069;28;20532;-76
2023/05/31 07:22:22;;;;;;;5.90;2.92;;;13.80;99.90;;;;;;4984848;28;20252;-76
2023/05/31 07:24:47;;;;;;;8.10;2.35;;;13.90;99.90;;;;;;4985303;28;20065;-75
2023/05/31 07:27:13;;;;;;;5.22;2.13;;;13.90;99.90;;;;;;5002036;28;20081;-76
2023/05/31 07:29:39;;;;;;;6.47;2.33;;;13.90;99.90;;;;;;5003587;28;20050;-75
2023/05/31 07:32:05;;;;;;;3.63;1.85;;;14.00;99.90;;;;;;4985159;28;20400;-75
2023/05/31 07:34:31;;;;;;;3.10;1.85;;;14.10;99.90;;;;;;4984774;28;20052;-76
2023/05/31 07:36:57;;;;;;;4.72;2.55;;;14.10;99.90;;;;;;5002597;28;20403;-75
2023/05/31 07:39:23;;;;;;;19.45;2.83;;;14.10;99.90;;;;;;5002415;28;20042;-76
2023/05/31 07:41:48;;;;;;;4.60;1.63;;;14.10;99.90;;;;;;5001780;28;20061;-75
2023/05/31 07:44:16;;;;;;;4.55;2.13;;;14.10;99.90;;;;;;5001221;28;20046;-75
2023/05/31 07:46:42;;;;;;;3.35;1.90;;;14.20;99.90;;;;;;4988677;28;20038;-76
2023/05/31 07:49:08;;;;;;;3.63;1.88;;;14.30;99.90;;;;;;4983864;28;20520;-76
2023/05/31 07:51:33;;;;;;;3.78;1.80;;;14.30;99.90;;;;;;4997692;28;20042;-75
2023/05/31 07:53:59;;;;;;;4.53;1.83;;;14.30;99.90;;;;;;4982663;28;20042;-76
2023/05/31 07:56:25;;;;;;;3.22;1.73;;;14.40;99.90;;;;;;4982525;28;20038;-75
2023/05/31 07:58:51;;;;;;;3.63;1.92;;;14.40;99.90;;;;;;4982675;28;20549;-76
2023/05/31 08:01:17;;;;;;;4.05;2.58;;;14.40;99.90;;;;;;4982818;28;20082;-76
2023/05/31 08:03:43;;;;;;;7.95;2.28;;;14.50;99.90;;;;;;4982690;28;20523;-76
2023/05/31 08:06:09;;;;;;;4.18;2.33;;;14.50;99.90;;;;;;4949797;28;20129;-75
2023/05/31 08:08:35;;;;;;;5.93;2.42;;;14.60;99.90;;;;;;4965455;28;20054;-75
2023/05/31 08:11:01;;;;;;;7.38;1.77;;;14.60;99.90;;;;;;4981282;28;20046;-76
2023/05/31 08:13:28;;;;;;;5.10;1.60;;;14.60;99.90;;;;;;4982906;28;20096;-75
2023/05/31 08:15:54;;;;;;;8.38;2.20;;;14.60;99.90;;;;;;4981903;28;20132;-76
2023/05/31 08:18:20;;;;;;;5.47;2.30;;;14.60;99.90;;;;;;4997970;28;20054;-75
2023/05/31 08:20:46;;;;;;;3.92;1.98;;;14.70;99.90;;;;;;4982235;28;20304;-76
2023/05/31 08:23:19;;;;;;;7.05;3.38;;;14.70;99.90;;;;;;4997061;28;20512;-76
2023/05/31 08:25:45;;;;;;;2.63;1.88;;;14.70;99.90;;;;;;4964770;28;20065;-76
2023/05/31 08:28:10;;;;;;;4.82;2.20;;;14.60;99.90;;;;;;4981644;28;20401;-75
2023/05/31 08:30:36;;;;;;;3.95;2.15;;;14.60;99.90;;;;;;4982996;28;20196;-76
2023/05/31 08:33:02;;;;;;;2.88;1.50;;;14.60;99.90;;;;;;4982186;28;20042;-76
2023/05/31 08:35:27;;;;;;;7.13;2.80;;;14.60;99.90;;;;;;4965406;28;20138;-76
2023/05/31 08:37:54;;;;;;;3.78;2.33;;;14.60;99.90;;;;;;4981354;28;20042;-76
2023/05/31 08:40:20;;;;;;;4.18;2.28;;;14.70;99.90;;;;;;4982886;28;20085;-76
2023/05/31 08:42:52;;;;;;;5.50;2.70;;;14.70;99.90;;;;;;4963323;28;20461;-76
2023/05/31 08:45:18;;;;;;;5.03;2.63;;;14.70;99.90;;;;;;4968798;28;20050;-76
2023/05/31 08:47:48;;;;;;;2.60;2.17;;;14.80;99.90;;;;;;5005383;28;20716;-76
2023/05/31 08:50:16;;;;;;;5.75;2.90;;;14.80;99.90;;;;;;5006033;28;20046;-76
2023/05/31 08:52:45;;;;;;;5.22;2.40;;;14.80;99.90;;;;;;5005343;28;20494;-76
2023/05/31 08:55:11;;;;;;;4.68;2.40;;;14.80;99.90;;;;;;5006230;28;20046;-76
2023/05/31 08:57:37;;;;;;;5.82;2.20;;;14.80;99.90;;;;;;5004606;28;20037;-76
2023/05/31 09:00:10;;;;;;;5.97;2.33;;;14.80;99.90;;;;;;5020875;28;20129;-76
2023/05/31 09:02:37;;;;;;;4.90;2.08;;;14.80;99.90;;;;;;5006132;28;20054;-76
2023/05/31 09:05:04;;;;;;;3.97;3.00;;;14.80;99.90;;;;;;4971321;28;20080;-75
2023/05/31 09:07:30;;;;;;;4.72;2.38;;;14.80;99.90;;;;;;5005620;28;20049;-76
2023/05/31 09:09:55;;;;;;;11.85;2.95;;;14.80;99.90;;;;;;4987801;28;20045;-76
2023/05/31 09:12:21;;;;;;;5.07;2.20;;;14.80;99.90;;;;;;5019415;28;20323;-76
2023/05/31 09:14:47;;;;;;;7.35;3.47;;;14.80;99.90;;;;;;4987563;28;20053;-75
2023/05/31 09:17:13;;;;;;;9.90;3.10;;;14.80;99.90;;;;;;5020334;28;20073;-76
2023/05/31 09:19:51;;;;;;;8.05;3.63;;;14.90;99.90;;;;;;5003828;28;20133;-76
2023/05/31 09:22:16;;;;;;;4.57;2.80;;;14.90;99.90;;;;;;5020762;28;20439;-75
2023/05/31 09:24:49;;;;;;;4.55;2.47;;;14.90;99.90;;;;;;5005443;28;20048;-76
2023/05/31 09:27:15;;;;;;;7.10;3.03;;;14.90;99.90;;;;;;5004659;28;20121;-76
2023/05/31 09:29:43;;;;;;;5.93;2.60;;;14.90;99.90;;;;;;5004966;28;20548;-76
2023/05/31 09:32:09;;;;;;;6.75;3.42;;;14.90;99.90;;;;;;5005679;28;20113;-75
2023/05/31 09:34:35;;;;;;;5.78;2.90;;;14.90;99.90;;;;;;5005827;28;20057;-75
2023/05/31 09:37:03;;;;;;;4.60;2.90;;;14.90;99.90;;;;;;5005100;28;20432;-77
2023/05/31 09:39:30;;;;;;;8.35;3.20;;;14.90;99.90;;;;;;5021139;28;20503;-74
2023/05/31 09:41:57;;;;;;;6.00;2.90;;;14.90;99.90;;;;;;4986124;28;20117;-74
2023/05/31 09:44:27;;;;;;;11.38;3.00;;;14.90;99.90;;;;;;5006190;28;20396;-76
2023/05/31 09:46:52;;;;;;;5.70;3.08;;;14.90;99.90;;;;;;5005200;28;20046;-75
2023/05/31 09:49:19;;;;;;;5.72;3.13;;;14.90;99.90;;;;;;5005420;28;20041;-74
2023/05/31 09:51:52;;;;;;;6.25;2.95;;;14.90;99.90;;;;;;5003416;28;20056;-74
2023/05/31 09:54:22;;;;;;;6.03;2.72;;;15.00;99.90;;;;;;5004709;28;20049;-74
2023/05/31 09:56:48;;;;;;;7.57;3.35;;;15.00;99.90;;;;;;5004046;28;20038;-75
2023/05/31 09:59:15;;;;;;;7.32;2.80;;;15.00;99.90;;;;;;5004868;28;20392;-75
2023/05/31 10:01:41;;;;;;;6.75;2.78;;;15.00;99.90;;;;;;5004637;28;20173;-74
2023/05/31 10:04:07;;;;;;;6.43;3.22;;;15.00;99.90;;;;;;4988586;28;20045;-74
2023/05/31 10:06:36;;;;;;;5.97;3.13;;;15.00;99.90;;;;;;5005264;28;20038;-74
2023/05/31 10:09:05;;;;;;;3.42;2.63;;;15.10;99.90;;;;;;4987107;28;20077;-74
2023/05/31 10:11:44;;;;;;;10.65;3.42;;;15.10;99.90;;;;;;5002580;28;20109;-74
2023/05/31 10:14:18;;;;;;;5.25;3.13;;;15.10;99.90;;;;;;4987729;28;20087;-75
2023/05/31 10:16:48;;;;;;;5.97;2.40;;;15.10;99.90;;;;;;5004426;28;20558;-74
2023/05/31 10:19:22;;;;;;;5.60;2.97;;;15.10;99.90;;;;;;5004686;28;20050;-74
2023/05/31 10:21:49;;;;;;;8.10;2.90;;;15.00;99.90;;;;;;5004365;28;20050;-75
2023/05/31 10:24:26;;;;;;;5.30;3.15;;;15.00;99.90;;;;;;5004183;28;20053;-74
2023/05/31 10:27:02;;;;;;;9.38;3.20;;;15.00;99.90;;;;;;4986352;28;20626;-74
2023/05/31 10:29:35;;;;;;;6.10;3.20;;;15.10;99.90;;;;;;5004513;28;20041;-74
2023/05/31 10:32:10;;;;;;;6.15;3.30;;;15.00;99.90;;;;;;4989473;28;20464;-74
2023/05/31 10:34:35;;;;;;;7.35;3.15;;;15.00;99.90;;;;;;4994442;28;20057;-75
2023/05/31 10:37:03;;;;;;;5.78;2.95;;;15.00;99.90;;;;;;5003842;28;20500;-74
2023/05/31 10:40:07;;;;;;;7.20;2.85;;;15.00;99.90;;;;;;4986409;28;20348;-76
2023/05/31 10:42:56;;;;;;;7.40;3.00;;;15.00;99.90;;;;;;5002521;28;20054;-75
2023/05/31 10:45:26;;;;;;;6.95;2.95;;;15.10;99.90;;;;;;4986312;28;20125;-76
2023/05/31 10:48:10;;;;;;;4.93;2.45;;;15.00;99.90;;;;;;5005692;28;20558;-75
2023/05/31 10:50:58;;;;;;;5.60;2.97;;;15.10;99.90;;;;;;4987044;28;20123;-75
2023/05/31 10:53:29;;;;;;;4.95;2.50;;;15.20;99.90;;;;;;5004167;28;20510;-75
2023/05/31 10:56:03;;;;;;;7.22;3.40;;;15.20;99.90;;;;;;5002540;28;20042;-75
2023/05/31 10:58:29;;;;;;;11.65;3.50;;;15.30;99.90;;;;;;4976914;28;20073;-75
2023/05/31 11:00:56;;;;;;;7.80;3.22;;;15.30;99.90;;;;;;4985734;28;20499;-76
2023/05/31 11:03:23;;;;;;;7.50;3.58;;;15.30;99.90;;;;;;4986043;28;20705;-77
2023/05/31 11:05:59;;;;;;;6.55;3.17;;;15.30;99.90;;;;;;5003283;28;20050;-76
2023/05/31 11:08:29;;;;;;;6.95;3.20;;;15.30;99.90;;;;;;5003097;28;20523;-77
2023/05/31 11:11:22;;;;;;;11.25;4.03;;;15.30;99.90;;;;;;4984671;28;20041;-77
2023/05/31 11:14:06;;;;;;;4.95;2.50;;;15.40;99.90;;;;;;4985474;28;20049;-74
2023/05/31 11:16:46;;;;;;;4.50;2.85;;;15.40;99.90;;;;;;5019042;28;20507;-76
2023/05/31 11:19:17;;;;;;;9.77;3.15;;;15.40;99.90;;;;;;4985076;28;20054;-75
2023/05/31 11:21:52;;;;;;;6.07;3.42;;;15.40;99.90;;;;;;5003032;28;20530;-76
2023/05/31 11:24:47;;;;;;;5.65;2.80;;;15.40;99.90;;;;;;5000075;28;20042;-75
2023/05/31 11:27:13;;;;;;;5.60;3.65;;;15.40;99.90;;;;;;4984922;28;20176;-75
2023/05/31 11:29:48;;;;;;;6.18;3.42;;;15.50;99.90;;;;;;4985860;28;20602;-76
2023/05/31 11:32:18;;;;;;;6.20;2.85;;;15.50;99.90;;;;;;4984992;28;20196;-75
2023/05/31 11:34:58;;;;;;;6.88;3.35;;;15.50;99.90;;;;;;4985782;28;20076;-75
2023/05/31 11:37:28;;;;;;;6.22;2.78;;;15.60;99.90;;;;;;4967100;28;20044;-76
2023/05/31 11:39:55;;;;;;;6.90;3.10;;;15.50;99.90;;;;;;4965802;28;20046;-76
2023/05/31 11:42:23;;;;;;;6.03;2.78;;;15.50;99.90;;;;;;4949127;28;20089;-73
2023/05/31 11:44:50;;;;;;;6.38;3.20;;;15.50;99.90;;;;;;4987030;28;20060;-76
2023/05/31 11:47:20;;;;;;;11.88;3.10;;;15.50;99.90;;;;;;4966549;28;20121;-77
2023/05/31 11:49:46;;;;;;;10.30;3.38;;;15.50;99.90;;;;;;5002347;28;20053;-74
2023/05/31 11:52:17;;;;;;;6.88;2.67;;;15.50;99.90;;;;;;5002892;28;20041;-76
2023/05/31 11:54:45;;;;;;;6.45;2.75;;;15.50;99.90;;;;;;5001486;28;20041;-74
2023/05/31 11:57:11;;;;;;;7.90;3.45;;;15.60;99.90;;;;;;5001649;28;20092;-75
2023/05/31 11:59:38;;;;;;;6.00;3.30;;;15.60;99.90;;;;;;5002074;28;20516;-74
2023/05/31 12:02:06;;;;;;;5.57;2.70;;;15.60;99.90;;;;;;4984527;28;20062;-75
2023/05/31 12:04:36;;;;;;;7.43;4.00;;;15.60;99.90;;;;;;5002945;28;20046;-74
2023/05/31 12:07:06;;;;;;;7.28;3.15;;;15.50;99.90;;;;;;5001677;28;20038;-75
2023/05/31 12:09:33;;;;;;;6.32;3.53;;;15.60;99.90;;;;;;5002754;28;20069;-74
2023/05/31 12:12:00;;;;;;;6.43;3.40;;;15.50;99.90;;;;;;5001379;28;20041;-72
2023/05/31 12:14:26;;;;;;;5.88;3.05;;;15.60;99.90;;;;;;4984433;28;20054;-72
2023/05/31 12:16:53;;;;;;;6.95;4.07;;;15.60;99.90;;;;;;5001937;28;20041;-72
2023/05/31 12:19:19;;;;;;;5.28;3.13;;;15.60;99.90;;;;;;5002088;28;20042;-72
2023/05/31 12:21:45;;;;;;;9.35;3.10;;;15.60;99.90;;;;;;4985467;28;20049;-72
2023/05/31 12:24:15;;;;;;;6.80;2.92;;;15.70;99.90;;;;;;5001689;28;20042;-73
2023/05/31 12:26:45;;;;;;;9.80;3.97;;;15.70;99.90;;;;;;5001047;28;20053;-73
2023/05/31 12:29:12;;;;;;;9.57;3.88;;;15.70;99.90;;;;;;4984312;28;20049;-72
2023/05/31 12:31:39;;;;;;;9.98;3.03;;;15.60;99.90;;;;;;5014393;28;20050;-71
2023/05/31 12:34:04;;;;;;;6.90;3.58;;;15.60;99.90;;;;;;5006012;28;20518;-71
2023/05/31 12:36:42;;;;;;;6.47;3.40;;;15.60;99.90;;;;;;4985040;28;20062;-72
2023/05/31 12:39:24;;;;;;;8.32;3.10;;;15.70;99.90;;;;;;5002445;28;20045;-72
2023/05/31 12:41:50;;;;;;;23.63;3.53;;;15.70;99.90;;;;;;4982905;28;20046;-72
2023/05/31 12:44:23;;;;;;;12.68;3.15;;;15.70;99.90;;;;;;4984343;28;20091;-72
2023/05/31 12:46:50;;;;;;;9.73;3.53;;;15.70;99.90;;;;;;4982809;28;20412;-72
2023/05/31 12:49:27;;;;;;;7.88;2.97;;;15.70;99.90;;;;;;5002030;28;20121;-72